Jamesburg, New Jersey
Current Conditions -  °F | °C
As of 10:53 AM on Saturday 25 Oct 2014 (Local Time) from KTTN Reporting Station
Clear Clear  
Wind Chill: 60°   Ceiling: Unl
Heat Index: 60°   Visibility: 10mi
Dew Point: 38°   Wind: 9mph
Humidity: 44%   Direction: 250°WSW
Pressure: 29.88"   Gusts: NA
Location:  40.35°N, 74.44°W
Report Text: KTTN 251453Z 25008KT 10SM CLR 16/03 A2988 RMK AO2 SLP111 T01560033 58007
Loading
Personal Weather Stations






























Interactive Weather Map
Tropical Storm Tracking
New forecast layout! Learn more

10-Day Weather Forecast

Advertisements
Track Severe Weather on mobile